createdAt,value
2022-11-23T00:01:15.044Z,4.10
2022-11-23T00:03:43.636Z,3.83
2022-11-23T00:06:12.276Z,4.03
2022-11-23T00:08:43.097Z,4.50
2022-11-23T00:11:11.849Z,4.20
2022-11-23T00:13:40.933Z,4.27
2022-11-23T00:16:09.758Z,3.97
2022-11-23T00:18:39.701Z,4.00
2022-11-23T00:21:08.795Z,4.00
2022-11-23T00:23:37.382Z,3.70
2022-11-23T00:26:06.252Z,4.30
2022-11-23T00:28:35.006Z,3.50
2022-11-23T00:31:03.432Z,3.60
2022-11-23T00:33:32.080Z,3.60
2022-11-23T00:36:02.555Z,4.00
2022-11-23T00:38:31.236Z,3.53
2022-11-23T00:41:00.955Z,3.40
2022-11-23T00:43:29.547Z,3.60
2022-11-23T00:46:05.398Z,3.20
2022-11-23T00:48:34.081Z,3.47
2022-11-23T00:51:04.468Z,2.93
2022-11-23T00:53:33.000Z,3.70
2022-11-23T00:56:01.444Z,3.23
2022-11-23T00:58:30.120Z,3.10
2022-11-23T01:01:06.481Z,3.00
2022-11-23T01:03:35.310Z,3.40
2022-11-23T01:06:05.587Z,2.93
2022-11-23T01:08:34.132Z,3.03
2022-11-23T01:11:03.184Z,3.20
2022-11-23T01:13:31.949Z,2.80
2022-11-23T01:16:00.507Z,2.93
2022-11-23T01:18:29.157Z,2.97
2022-11-23T01:20:57.859Z,2.83
2022-11-23T01:23:30.328Z,2.70
2022-11-23T01:25:58.944Z,3.00
2022-11-23T01:28:27.643Z,2.73
2022-11-23T01:30:56.198Z,2.60
2022-11-23T01:33:24.697Z,2.60
2022-11-23T01:35:53.390Z,2.90
2022-11-23T01:38:21.997Z,2.77
2022-11-23T01:40:51.885Z,2.67
2022-11-23T01:43:20.556Z,2.87
2022-11-23T01:45:58.412Z,2.60
2022-11-23T01:48:29.079Z,2.77
2022-11-23T01:50:58.356Z,2.53
2022-11-23T01:53:27.170Z,2.50
2022-11-23T01:55:58.452Z,2.10
2022-11-23T01:58:27.590Z,2.60
2022-11-23T02:00:56.333Z,2.33
2022-11-23T02:03:24.992Z,2.67
2022-11-23T02:06:00.220Z,2.23
2022-11-23T02:08:29.796Z,2.40
2022-11-23T02:10:59.908Z,2.47
2022-11-23T02:13:29.380Z,2.33
2022-11-23T02:15:59.277Z,2.10
2022-11-23T02:18:29.383Z,2.00
2022-11-23T02:20:58.957Z,2.13
2022-11-23T02:23:34.306Z,2.10
2022-11-23T02:26:06.387Z,1.90
2022-11-23T02:28:37.259Z,1.60
2022-11-23T02:31:05.773Z,1.70
2022-11-23T02:33:34.276Z,1.77
2022-11-23T02:36:03.301Z,1.77
2022-11-23T02:38:33.594Z,1.70
2022-11-23T02:41:02.236Z,1.63
2022-11-23T02:43:32.141Z,1.70
2022-11-23T02:46:01.764Z,1.33
2022-11-23T02:48:30.561Z,1.30
2022-11-23T02:50:59.016Z,1.23
2022-11-23T02:53:27.431Z,1.50
2022-11-23T02:55:56.071Z,1.00
2022-11-23T02:58:24.512Z,1.27
2022-11-23T03:00:54.403Z,1.10
2022-11-23T03:03:23.058Z,1.03
2022-11-23T03:05:51.471Z,0.97
2022-11-23T03:08:19.911Z,0.83
2022-11-23T03:10:48.569Z,1.10
2022-11-23T03:13:16.996Z,1.17
2022-11-23T03:15:45.481Z,0.90
2022-11-23T03:18:15.729Z,1.07
2022-11-23T03:20:44.161Z,1.13
2022-11-23T03:23:12.585Z,1.00
2022-11-23T03:25:41.211Z,1.00
2022-11-23T03:28:09.749Z,1.00
2022-11-23T03:30:38.196Z,1.20
2022-11-23T03:33:06.801Z,1.00
2022-11-23T03:35:36.765Z,0.90
2022-11-23T03:38:05.183Z,1.10
2022-11-23T03:40:33.840Z,1.23
2022-11-23T03:43:02.450Z,1.10
2022-11-23T03:45:30.886Z,0.90
2022-11-23T03:47:59.420Z,0.80
2022-11-23T03:50:29.781Z,1.10
2022-11-23T03:52:59.777Z,1.03
2022-11-23T03:55:29.873Z,1.30
2022-11-23T03:57:59.710Z,1.23
2022-11-23T04:00:28.304Z,1.30
2022-11-23T04:02:57.140Z,1.17
2022-11-23T04:05:25.610Z,1.13
2022-11-23T04:07:54.052Z,0.90
2022-11-23T04:10:24.208Z,1.37
2022-11-23T04:12:53.141Z,1.20
2022-11-23T04:15:21.540Z,1.23
2022-11-23T04:17:50.527Z,1.17
2022-11-23T04:20:18.944Z,1.30
2022-11-23T04:22:47.391Z,1.10
2022-11-23T04:25:16.053Z,1.20
2022-11-23T04:27:45.881Z,1.20
2022-11-23T04:30:14.856Z,1.20
2022-11-23T04:32:46.000Z,1.17
2022-11-23T04:35:14.617Z,1.10
2022-11-23T04:37:43.180Z,0.93
2022-11-23T04:40:12.096Z,1.10
2022-11-23T04:42:40.522Z,1.00
2022-11-23T04:45:11.405Z,1.00
2022-11-23T04:47:40.104Z,1.30
2022-11-23T04:50:08.891Z,1.27
2022-11-23T04:52:37.472Z,1.00
2022-11-23T04:55:06.299Z,1.07
2022-11-23T04:57:34.745Z,1.00
2022-11-23T05:00:03.344Z,1.20
2022-11-23T05:02:33.262Z,0.90
2022-11-23T05:05:01.736Z,0.83
2022-11-23T05:07:30.322Z,0.80
2022-11-23T05:09:58.817Z,0.70
2022-11-23T05:12:27.263Z,0.80
2022-11-23T05:14:55.796Z,0.80
2022-11-23T05:17:24.399Z,0.80
2022-11-23T05:19:54.218Z,0.80
2022-11-23T05:22:22.839Z,0.73
2022-11-23T05:24:51.441Z,0.63
2022-11-23T05:27:19.897Z,0.60
2022-11-23T05:29:48.498Z,0.73
2022-11-23T05:32:17.081Z,0.60
2022-11-23T05:34:46.121Z,0.60
2022-11-23T05:37:15.993Z,0.70
2022-11-23T05:39:44.526Z,0.70
2022-11-23T05:42:12.945Z,0.50
2022-11-23T05:44:41.480Z,0.60
2022-11-23T05:47:10.095Z,0.77
2022-11-23T05:49:38.513Z,0.83
2022-11-23T05:52:07.241Z,0.57
2022-11-23T05:54:37.159Z,0.47
2022-11-23T05:57:05.615Z,0.50
2022-11-23T05:59:34.399Z,0.60
2022-11-23T06:02:03.301Z,0.60
2022-11-23T06:04:31.856Z,0.53
2022-11-23T06:07:01.145Z,0.50
2022-11-23T06:09:32.517Z,0.50
2022-11-23T06:12:02.532Z,0.50
2022-11-23T06:14:31.208Z,0.60
2022-11-23T06:16:59.619Z,0.30
2022-11-23T06:19:30.536Z,0.47
2022-11-23T06:21:59.613Z,0.70
2022-11-23T06:24:28.161Z,0.50
2022-11-23T06:26:56.625Z,0.20
2022-11-23T06:29:26.652Z,0.40
2022-11-23T06:31:55.456Z,0.43
2022-11-23T06:34:24.084Z,0.40
2022-11-23T06:36:52.625Z,0.30
2022-11-23T06:39:21.064Z,0.30
2022-11-23T06:41:49.588Z,0.30
2022-11-23T06:44:18.217Z,0.10
2022-11-23T06:46:48.052Z,0.30
2022-11-23T06:49:17.218Z,0.27
2022-11-23T06:51:45.752Z,0.27
2022-11-23T06:54:14.400Z,0.20
2022-11-23T06:56:42.929Z,0.30
2022-11-23T06:59:11.545Z,0.40
2022-11-23T07:01:40.039Z,0.40
2022-11-23T07:04:10.016Z,0.43
2022-11-23T07:06:41.536Z,0.90
2022-11-23T07:09:10.544Z,0.60
2022-11-23T07:11:38.970Z,0.37
2022-11-23T07:14:07.573Z,0.70
2022-11-23T07:16:36.273Z,0.70
2022-11-23T07:19:04.720Z,0.67
2022-11-23T07:21:34.719Z,0.50
2022-11-23T07:24:03.337Z,0.30
2022-11-23T07:26:31.760Z,0.27
2022-11-23T07:29:00.388Z,0.27
2022-11-23T07:31:29.000Z,0.30
2022-11-23T07:33:57.428Z,0.30
2022-11-23T07:36:26.090Z,0.40
2022-11-23T07:38:56.084Z,0.40
2022-11-23T07:41:25.916Z,0.20
2022-11-23T07:43:54.589Z,0.20
2022-11-23T07:46:23.330Z,0.60
2022-11-23T07:48:51.784Z,0.30
2022-11-23T07:51:20.761Z,0.40
2022-11-23T07:53:49.431Z,0.23
2022-11-23T07:56:19.268Z,0.30
2022-11-23T07:58:47.834Z,0.40
2022-11-23T08:01:18.231Z,0.20
2022-11-23T08:03:46.776Z,0.20
2022-11-23T08:06:16.212Z,0.40
2022-11-23T08:08:44.847Z,0.27
2022-11-23T08:11:17.175Z,0.10
2022-11-23T08:13:47.312Z,0.10
2022-11-23T08:16:15.756Z,0.17
2022-11-23T08:18:44.185Z,0.10
2022-11-23T08:21:12.859Z,0.20
2022-11-23T08:23:41.287Z,0.30
2022-11-23T08:26:13.625Z,0.30
2022-11-23T08:28:42.832Z,0.20
2022-11-23T08:31:14.579Z,0.20
2022-11-23T08:33:43.032Z,0.30
2022-11-23T08:36:11.773Z,0.33
2022-11-23T08:38:40.304Z,0.30
2022-11-23T08:41:08.730Z,0.20
2022-11-23T08:43:37.395Z,0.30
2022-11-23T08:46:10.927Z,0.30
2022-11-23T08:48:41.366Z,0.30
2022-11-23T08:51:09.914Z,0.20
2022-11-23T08:53:38.753Z,0.20
2022-11-23T08:56:08.414Z,0.20
2022-11-23T08:58:36.906Z,0.20
2022-11-23T09:01:09.787Z,0.30
2022-11-23T09:03:38.237Z,0.30
2022-11-23T09:06:08.361Z,0.30
2022-11-23T09:08:37.128Z,0.40
2022-11-23T09:11:06.271Z,0.20
2022-11-23T09:13:37.009Z,0.40
2022-11-23T09:16:05.857Z,0.37
2022-11-23T09:18:35.870Z,0.37
2022-11-23T09:21:04.909Z,0.27
2022-11-23T09:23:35.209Z,0.50
2022-11-23T09:26:04.062Z,0.60
2022-11-23T09:28:32.826Z,0.67
2022-11-23T09:31:04.449Z,0.90
2022-11-23T09:33:32.893Z,0.73
2022-11-23T09:36:01.811Z,0.70
2022-11-23T09:38:54.731Z,1.00
2022-11-23T09:41:28.717Z,0.80
2022-11-23T09:44:03.504Z,0.90
2022-11-23T09:46:37.352Z,0.90
2022-11-23T09:49:14.075Z,0.60
2022-11-23T09:51:43.375Z,0.90
2022-11-23T09:54:24.349Z,0.67
2022-11-23T09:57:01.212Z,0.70
2022-11-23T09:59:38.135Z,0.83
2022-11-23T10:02:07.063Z,0.90
2022-11-23T10:04:36.653Z,0.70
2022-11-23T10:07:09.006Z,0.90
2022-11-23T10:09:40.996Z,1.00
2022-11-23T10:12:19.727Z,0.90
2022-11-23T10:14:53.448Z,0.80
2022-11-23T10:17:27.094Z,0.70
2022-11-23T10:20:02.216Z,0.80
2022-11-23T10:22:33.760Z,0.70
2022-11-23T10:25:03.945Z,0.80
2022-11-23T10:27:33.751Z,0.90
2022-11-23T10:30:02.479Z,0.70
2022-11-23T10:32:34.203Z,0.77
2022-11-23T10:35:06.177Z,0.80
2022-11-23T10:37:35.481Z,0.97
2022-11-23T10:40:03.901Z,0.70
2022-11-23T10:42:36.392Z,0.80
2022-11-23T10:45:05.839Z,0.80
2022-11-23T10:47:38.799Z,0.83
2022-11-23T10:50:22.656Z,0.70
2022-11-23T10:52:55.065Z,0.70
2022-11-23T10:55:26.001Z,0.80
2022-11-23T10:57:56.086Z,0.80
2022-11-23T11:00:30.276Z,0.80
2022-11-23T11:03:00.445Z,0.63
2022-11-23T11:08:22.207Z,0.70
2022-11-23T11:10:52.090Z,0.70
2022-11-23T11:13:26.494Z,0.80
2022-11-23T11:15:55.964Z,0.80
2022-11-23T11:18:26.644Z,0.70
2022-11-23T11:20:58.489Z,0.90
2022-11-23T11:23:26.973Z,0.80
2022-11-23T11:26:04.696Z,0.80
2022-11-23T11:28:36.994Z,1.00
2022-11-23T11:31:15.405Z,0.80
2022-11-23T11:33:46.758Z,0.90
2022-11-23T11:36:17.439Z,0.80
2022-11-23T11:39:07.728Z,1.00
2022-11-23T11:41:37.631Z,0.90
2022-11-23T11:44:09.655Z,0.80
2022-11-23T11:46:39.977Z,0.90
2022-11-23T11:49:10.844Z,1.00
2022-11-23T11:51:41.746Z,1.03
2022-11-23T11:54:15.019Z,0.73
2022-11-23T11:56:45.276Z,0.90
2022-11-23T11:59:19.220Z,0.90
2022-11-23T12:01:53.417Z,0.80
2022-11-23T12:04:25.401Z,1.10
2022-11-23T12:06:58.148Z,0.97
2022-11-23T12:09:29.560Z,0.90
2022-11-23T12:11:58.057Z,1.00
2022-11-23T12:14:28.468Z,1.00
2022-11-23T12:17:30.811Z,0.90
2022-11-23T12:19:53.544Z,1.00
2022-11-23T12:22:37.052Z,1.10
2022-11-23T12:25:14.416Z,1.03
2022-11-23T12:27:50.160Z,0.90
2022-11-23T12:30:23.297Z,0.90
2022-11-23T12:33:04.389Z,0.83
2022-11-23T12:35:39.249Z,1.13
2022-11-23T12:38:12.836Z,1.00
2022-11-23T12:40:59.052Z,1.00
2022-11-23T12:43:36.322Z,1.07
2022-11-23T12:46:09.835Z,1.13
2022-11-23T12:48:43.869Z,1.10
2022-11-23T12:51:19.797Z,1.00
2022-11-23T12:53:52.880Z,1.13
2022-11-23T12:56:25.986Z,0.90
2022-11-23T12:58:55.115Z,0.90
2022-11-23T13:01:30.839Z,0.83
2022-11-23T13:04:23.781Z,1.00
2022-11-23T13:07:40.973Z,1.00
2022-11-23T13:10:14.411Z,1.00
2022-11-23T13:12:49.112Z,1.00
2022-11-23T13:15:21.353Z,0.90
2022-11-23T13:17:55.777Z,0.90
2022-11-23T13:20:30.605Z,0.97
2022-11-23T13:23:01.628Z,0.93
2022-11-23T13:25:31.141Z,0.97
2022-11-23T13:28:01.289Z,1.03
2022-11-23T13:30:51.843Z,0.90
2022-11-23T13:33:38.372Z,1.20
2022-11-23T13:36:11.410Z,1.23
2022-11-23T13:38:44.553Z,1.00
2022-11-23T13:41:33.479Z,1.00
2022-11-23T13:44:12.525Z,1.00
2022-11-23T13:46:41.249Z,1.20
2022-11-23T13:49:30.651Z,1.00
2022-11-23T13:52:06.842Z,0.90
2022-11-23T13:54:35.380Z,1.00
2022-11-23T13:57:06.966Z,1.10
2022-11-23T13:59:35.973Z,0.80
2022-11-23T14:02:25.098Z,0.93
2022-11-23T14:04:56.053Z,0.80
2022-11-23T14:07:25.878Z,0.90
2022-11-23T14:09:57.045Z,1.07
2022-11-23T14:12:32.020Z,0.90
2022-11-23T14:15:04.032Z,0.90
2022-11-23T14:17:53.450Z,0.90
2022-11-23T14:20:30.812Z,1.00
2022-11-23T14:23:09.104Z,0.77
2022-11-23T14:25:40.966Z,1.00
2022-11-23T14:28:16.764Z,0.87
2022-11-23T14:30:49.382Z,0.90
2022-11-23T14:33:25.012Z,0.90
2022-11-23T14:35:59.470Z,1.03
2022-11-23T14:38:40.303Z,0.70
2022-11-23T14:41:10.111Z,0.80
2022-11-23T14:43:42.077Z,1.10
2022-11-23T14:46:16.526Z,0.93
2022-11-23T14:48:45.180Z,0.70
2022-11-23T14:51:16.120Z,0.70
2022-11-23T14:53:47.245Z,1.10
2022-11-23T14:56:22.955Z,1.00
2022-11-23T14:58:52.409Z,0.80
2022-11-23T15:01:23.255Z,0.70
2022-11-23T15:03:58.791Z,0.83
2022-11-23T15:06:31.874Z,0.90
2022-11-23T15:09:06.219Z,0.90
2022-11-23T15:11:36.012Z,1.00
2022-11-23T15:14:04.682Z,1.00
2022-11-23T15:16:42.761Z,0.90
2022-11-23T15:19:21.040Z,0.90
2022-11-23T15:21:50.989Z,0.97
2022-11-23T15:24:23.672Z,0.93
2022-11-23T15:26:52.749Z,0.93
2022-11-23T15:29:31.482Z,1.20
2022-11-23T15:32:29.335Z,2.17
2022-11-23T15:34:49.425Z,1.60
2022-11-23T15:37:20.658Z,2.40
2022-11-23T15:39:49.611Z,1.57
2022-11-23T15:42:19.364Z,1.60
2022-11-23T15:44:50.861Z,1.63
2022-11-23T15:47:23.720Z,1.10
2022-11-23T15:49:52.586Z,1.00
2022-11-23T15:52:22.656Z,1.00
2022-11-23T15:54:51.130Z,1.10
2022-11-23T15:57:21.736Z,1.10
2022-11-23T15:59:50.908Z,1.17
2022-11-23T16:02:20.026Z,0.90
2022-11-23T16:04:48.857Z,0.73
2022-11-23T16:07:22.852Z,1.00
2022-11-23T16:09:53.339Z,0.70
2022-11-23T16:12:26.905Z,0.80
2022-11-23T16:14:56.066Z,0.87
2022-11-23T16:17:25.344Z,0.90
2022-11-23T16:19:54.296Z,0.97
2022-11-23T16:22:30.372Z,1.10
2022-11-23T16:25:04.156Z,1.00
2022-11-23T16:27:32.991Z,0.90
2022-11-23T16:30:03.771Z,0.73
2022-11-23T16:32:33.068Z,1.03
2022-11-23T16:35:10.947Z,1.00
2022-11-23T16:37:40.765Z,1.30
2022-11-23T16:40:09.778Z,0.80
2022-11-23T16:42:38.260Z,0.90
2022-11-23T16:45:07.669Z,1.07
2022-11-23T16:47:36.502Z,1.00
2022-11-23T16:50:05.321Z,0.93
2022-11-23T16:52:33.767Z,0.87
2022-11-23T16:55:03.705Z,1.00
2022-11-23T16:57:33.209Z,0.97
2022-11-23T17:00:04.693Z,0.90
2022-11-23T17:02:33.238Z,0.80
2022-11-23T17:05:01.943Z,0.93
2022-11-23T17:07:30.513Z,0.97
2022-11-23T17:09:59.246Z,1.17
2022-11-23T17:12:29.292Z,1.00
2022-11-23T17:14:57.745Z,1.00
2022-11-23T17:17:26.321Z,1.00
2022-11-23T17:19:57.511Z,1.17
2022-11-23T17:22:28.269Z,1.30
2022-11-23T17:24:56.842Z,1.50
2022-11-23T17:27:25.785Z,1.30
2022-11-23T17:29:58.145Z,1.20
2022-11-23T17:32:26.891Z,1.40
2022-11-23T17:34:55.331Z,1.00
2022-11-23T17:37:25.213Z,1.30
2022-11-23T17:39:53.870Z,1.30
2022-11-23T17:42:22.369Z,1.27
2022-11-23T17:44:50.960Z,1.20
2022-11-23T17:47:23.623Z,1.40
2022-11-23T17:49:52.290Z,1.30
2022-11-23T17:52:20.911Z,1.23
2022-11-23T17:54:49.330Z,1.50
2022-11-23T17:57:19.180Z,1.20
2022-11-23T17:59:47.638Z,1.30
2022-11-23T18:02:16.377Z,1.20
2022-11-23T18:04:46.372Z,1.27
2022-11-23T18:07:15.718Z,1.43
2022-11-23T18:09:44.791Z,1.43
2022-11-23T18:12:13.745Z,1.50
2022-11-23T18:14:42.206Z,1.50
2022-11-23T18:17:10.704Z,1.57
2022-11-23T18:19:39.467Z,1.70
2022-11-23T18:22:09.297Z,1.67
2022-11-23T18:24:37.728Z,1.70
2022-11-23T18:27:06.382Z,1.50
2022-11-23T18:29:37.865Z,1.70
2022-11-23T18:32:06.773Z,1.50
2022-11-23T18:34:35.693Z,1.70
2022-11-23T18:37:04.120Z,1.73
2022-11-23T18:39:34.800Z,1.70
2022-11-23T18:42:05.930Z,1.73
2022-11-23T18:44:35.036Z,1.40
2022-11-23T18:47:03.536Z,1.50
2022-11-23T18:49:32.627Z,1.80
2022-11-23T18:52:01.239Z,1.70
2022-11-23T18:54:29.721Z,1.67
2022-11-23T18:56:59.670Z,1.70
2022-11-23T18:59:50.401Z,1.80
2022-11-23T19:02:16.811Z,1.60
2022-11-23T19:04:45.444Z,1.70
2022-11-23T19:07:14.794Z,1.70
2022-11-23T19:09:43.434Z,1.53
2022-11-23T19:12:14.121Z,1.47
2022-11-23T19:14:46.023Z,1.50
2022-11-23T19:17:14.451Z,1.33
2022-11-23T19:19:43.009Z,1.50
2022-11-23T19:22:11.703Z,1.60
2022-11-23T19:24:40.268Z,1.60
2022-11-23T19:27:08.713Z,1.60
2022-11-23T19:29:38.908Z,1.53
2022-11-23T19:32:07.765Z,1.40
2022-11-23T19:34:36.208Z,1.83
2022-11-23T19:37:05.087Z,1.50
2022-11-23T19:39:33.772Z,1.57
2022-11-23T19:42:02.443Z,1.40
2022-11-23T19:44:31.128Z,1.57
2022-11-23T19:47:02.037Z,1.43
2022-11-23T19:49:32.066Z,1.47
2022-11-23T19:52:01.982Z,1.53
2022-11-23T19:54:30.560Z,1.30
2022-11-23T19:56:59.074Z,1.40
2022-11-23T19:59:27.788Z,1.43
2022-11-23T20:01:56.255Z,1.30
2022-11-23T20:04:26.253Z,1.30
2022-11-23T20:06:54.744Z,1.30
2022-11-23T20:09:24.066Z,1.50
2022-11-23T20:11:52.621Z,1.40
2022-11-23T20:14:21.101Z,1.30
2022-11-23T20:16:49.650Z,1.70
2022-11-23T20:19:18.151Z,1.37
2022-11-23T20:21:48.096Z,1.30
2022-11-23T20:24:16.655Z,1.23
2022-11-23T20:26:45.205Z,1.17
2022-11-23T20:29:14.979Z,1.17
2022-11-23T20:31:43.504Z,1.30
2022-11-23T20:34:16.779Z,1.23
2022-11-23T20:36:49.857Z,1.50
2022-11-23T20:39:18.471Z,1.23
2022-11-23T20:41:49.414Z,1.20
2022-11-23T20:44:18.937Z,1.27
2022-11-23T20:47:04.090Z,1.20
2022-11-23T20:49:33.005Z,1.17
2022-11-23T20:52:03.075Z,1.47
2022-11-23T20:54:32.507Z,1.30
2022-11-23T20:57:01.261Z,1.30
2022-11-23T20:59:30.095Z,1.20
2022-11-23T21:01:58.764Z,1.10
2022-11-23T21:04:27.564Z,1.27
2022-11-23T21:06:56.010Z,1.20
2022-11-23T21:09:25.878Z,1.00
2022-11-23T21:12:11.911Z,1.40
2022-11-23T21:14:40.422Z,1.10
2022-11-23T21:17:08.868Z,1.33
2022-11-23T21:19:37.869Z,1.13
2022-11-23T21:22:07.893Z,1.10
2022-11-23T21:24:38.017Z,1.00
2022-11-23T21:27:07.732Z,1.27
2022-11-23T21:29:36.417Z,1.20
2022-11-23T21:32:05.541Z,1.30
2022-11-23T21:34:34.452Z,1.30
2022-11-23T21:37:03.163Z,1.40
2022-11-23T21:39:33.113Z,1.30
2022-11-23T21:42:03.509Z,1.30
2022-11-23T21:44:32.479Z,1.47
2022-11-23T21:47:01.257Z,1.50
2022-11-23T21:49:29.824Z,1.50
2022-11-23T21:51:58.370Z,1.30
2022-11-23T21:54:27.176Z,1.47
2022-11-23T21:56:56.008Z,1.60
2022-11-23T21:59:25.908Z,1.30
2022-11-23T22:01:58.870Z,1.13
2022-11-23T22:04:27.764Z,1.30
2022-11-23T22:06:56.200Z,1.33
2022-11-23T22:09:24.797Z,1.30
2022-11-23T22:11:53.288Z,1.47
2022-11-23T22:14:22.075Z,1.43
2022-11-23T22:16:53.838Z,1.10
2022-11-23T22:19:22.360Z,1.30
2022-11-23T22:21:50.786Z,1.43
2022-11-23T22:24:20.082Z,1.10
2022-11-23T22:26:49.134Z,1.53
2022-11-23T22:29:17.587Z,1.40
2022-11-23T22:31:46.236Z,1.10
2022-11-23T22:34:16.468Z,1.33
2022-11-23T22:36:44.915Z,1.47
2022-11-23T22:39:13.519Z,1.33
2022-11-23T22:41:42.207Z,1.30
2022-11-23T22:44:11.362Z,1.20
2022-11-23T22:46:40.398Z,1.40
2022-11-23T22:49:09.070Z,1.30
2022-11-23T22:51:38.955Z,1.17
2022-11-23T22:54:07.474Z,1.23
2022-11-23T22:56:35.949Z,1.00
2022-11-23T22:59:04.586Z,1.20
2022-11-23T23:01:33.594Z,1.23
2022-11-23T23:04:03.965Z,1.27
2022-11-23T23:06:34.731Z,1.20
2022-11-23T23:09:06.378Z,1.30
2022-11-23T23:11:35.767Z,1.30
2022-11-23T23:14:04.188Z,1.30
2022-11-23T23:16:32.969Z,1.13
2022-11-23T23:19:01.828Z,1.47
2022-11-23T23:21:30.647Z,1.40
2022-11-23T23:24:01.175Z,1.33
2022-11-23T23:26:31.678Z,1.20
2022-11-23T23:29:00.708Z,1.30
2022-11-23T23:31:30.013Z,1.20
2022-11-23T23:33:58.696Z,1.40
2022-11-23T23:36:27.229Z,1.30
2022-11-23T23:38:55.777Z,1.10
2022-11-23T23:41:24.432Z,1.30
2022-11-23T23:43:54.242Z,1.10
2022-11-23T23:46:22.947Z,1.10
2022-11-23T23:48:51.698Z,1.10
2022-11-23T23:51:21.034Z,1.20
2022-11-23T23:53:50.932Z,1.20
2022-11-23T23:56:20.380Z,1.27
2022-11-23T23:58:48.852Z,1.50
